Weather History for Bigfork, MN

Change the Weather History Date:

Sunday, September 22, 2013

  Actual Average (KGPZ) Record (KGPZ)
Temperature  
Mean Temperature 48 °F -  
Max Temperature 66 °F 61 °F 90 °F (1936)
Min Temperature 30 °F 39 °F 23 °F (1947)
Degree Days  
Heating Degree Days 17    
Moisture  
Dew Point 41 °F    
Average Humidity 72    
Maximum Humidity 100    
Minimum Humidity 46    
Precipitation  
Precipitation 0.00 in - - ()
Sea Level Pressure  
Sea Level Pressure 29.92 in    
Wind  
Wind Speed 5 mph (SE)    
Max Wind Speed 15 mph    
Max Gust Speed 23 mph    
Visibility 10 miles    
Events      
Averages and records for this station are not official NWS values.
T = Trace of Precipitation, MM = Missing Value Source: NWS Daily Summary

Daily Weather History Graph

Daily Weather History Graph

Search for Another Location

Airport:

Trip Planner

Search our weather history database for the weather conditions in past years. The results will help you decide how hot, cold, wet, or windy it might be!

Date:

Astronomy

Sep. 22, 2013 Rise Set
Actual Time 7:01 AM CDT 7:11 PM CDT
Civil Twilight 6:30 AM CDT 7:42 PM CDT
Nautical Twilight 5:54 AM CDT 8:18 PM CDT
Astronomical Twilight 5:16 AM CDT 8:56 PM CDT
Moon 8:44 PM CDT (9/22) 10:39 AM CDT (9/22)
Length of Visible Light 13h 11m
Length of Day
12h 10m
Waning Gibbous, 88% of the Moon is Illuminated
Sep 22
Waning Gibbous
Sep 26
Last Quarter
Oct 4
New
Oct 11
First Quarter
Oct 18
Full

Hourly Weather History & Observations

Time (CDT) Temp. Windchill Dew Point Humidity Pressure Visibility Wind Dir Wind Speed Gust Speed Precip Events Conditions
12:13 AM 35.6 °F - 33.8 °F 93% 29.97 in 10.0 mi Calm Calm - N/A   Clear
12:33 AM 35.6 °F - 33.8 °F 93% 29.98 in 10.0 mi Calm Calm - N/A   Clear
12:53 AM 33.8 °F - 32.0 °F 93% 29.98 in 10.0 mi Calm Calm - N/A   Clear
1:13 AM 35.6 °F - 33.8 °F 93% 29.97 in 10.0 mi Calm Calm - N/A   Clear
1:33 AM 35.6 °F - 33.8 °F 93% 29.97 in 10.0 mi Calm Calm - N/A   Clear
1:53 AM 35.6 °F - 33.8 °F 93% 29.97 in 10.0 mi Calm Calm - N/A   Clear
2:13 AM 33.8 °F - 30.2 °F 87% 29.98 in 10.0 mi Calm Calm - N/A   Clear
2:33 AM 33.8 °F - 30.2 °F 87% 29.98 in 10.0 mi Calm Calm - N/A   Clear
2:53 AM 33.8 °F - 32.0 °F 93% 29.97 in 10.0 mi Calm Calm - N/A   Clear
3:13 AM 33.8 °F - 32.0 °F 93% 29.97 in 10.0 mi Calm Calm - N/A   Clear
3:33 AM 32.0 °F - 30.2 °F 93% 29.98 in 10.0 mi Calm Calm - N/A   Clear
3:53 AM 30.2 °F - 30.2 °F 100% 29.98 in 10.0 mi Calm Calm - N/A   Clear
4:13 AM 37.4 °F - 35.6 °F 93% 29.97 in 10.0 mi Calm Calm - N/A   Clear
4:33 AM 33.8 °F - 32.0 °F 93% 29.98 in 10.0 mi Calm Calm - N/A   Clear
4:53 AM 33.8 °F - 32.0 °F 93% 29.97 in 10.0 mi Calm Calm - N/A   Clear
5:13 AM 35.6 °F - 33.8 °F 93% 29.97 in 10.0 mi Calm Calm - N/A   Clear
5:33 AM 35.6 °F 31.7 °F 33.8 °F 93% 29.97 in 10.0 mi SE 4.6 mph - N/A   Clear
5:53 AM 37.4 °F 34.9 °F 37.4 °F 100% 29.97 in 10.0 mi SE 3.5 mph - N/A   Clear
6:13 AM 39.2 °F 35.0 °F 37.4 °F 93% 29.97 in 10.0 mi SE 5.8 mph - N/A   Clear
6:33 AM 39.2 °F 35.0 °F 37.4 °F 93% 29.97 in 10.0 mi SE 5.8 mph - N/A   Clear
6:53 AM 41.0 °F 38.0 °F 39.2 °F 93% 29.97 in 10.0 mi SE 4.6 mph - N/A   Clear
7:13 AM 39.2 °F 35.9 °F 37.4 °F 93% 29.97 in 10.0 mi SE 4.6 mph - N/A   Clear
7:33 AM 39.2 °F 37.0 °F 37.4 °F 93% 29.98 in 10.0 mi SE 3.5 mph - N/A   Clear
7:53 AM 42.8 °F 40.1 °F 39.2 °F 87% 29.97 in 10.0 mi SSE 4.6 mph - N/A   Clear
8:13 AM 42.8 °F 38.6 °F 39.2 °F 87% 29.97 in 10.0 mi SE 6.9 mph - N/A   Clear
8:33 AM 44.6 °F 40.7 °F 41.0 °F 87% 29.96 in 10.0 mi SSE 6.9 mph - N/A   Clear
8:53 AM 46.4 °F 42.4 °F 41.0 °F 81% 29.96 in 10.0 mi SE 8.1 mph - N/A   Clear
9:13 AM 48.2 °F - 41.0 °F 76% 29.96 in 10.0 mi SSE 5.8 mph - N/A   Clear
9:33 AM 51.8 °F - 42.8 °F 71% 29.96 in 10.0 mi SSE 8.1 mph 17.3 mph N/A   Clear
9:53 AM 53.6 °F - 42.8 °F 67% 29.96 in 10.0 mi SSE 8.1 mph - N/A   Clear
10:13 AM 53.6 °F - 42.8 °F 67% 29.96 in 10.0 mi SSE 8.1 mph 20.7 mph N/A   Clear
10:33 AM 55.4 °F - 42.8 °F 63% 29.96 in 10.0 mi SE 15.0 mph 18.4 mph N/A   Clear
10:53 AM 55.4 °F - 42.8 °F 63% 29.95 in 10.0 mi SE 12.7 mph 19.6 mph N/A   Clear
11:13 AM 57.2 °F - 42.8 °F 59% 29.95 in 10.0 mi SSE 10.4 mph 17.3 mph N/A   Clear
11:33 AM 57.2 °F - 42.8 °F 59% 29.94 in 10.0 mi SE 11.5 mph 18.4 mph N/A   Clear
11:53 AM 60.8 °F - 42.8 °F 52% 29.93 in 10.0 mi SSE 9.2 mph 16.1 mph N/A   Clear
12:13 PM 60.8 °F - 42.8 °F 52% 29.93 in 10.0 mi SE 15.0 mph 23.0 mph N/A   Clear
12:33 PM 60.8 °F - 42.8 °F 52% 29.92 in 10.0 mi SSE 10.4 mph 17.3 mph N/A   Clear
12:53 PM 62.6 °F - 42.8 °F 48% 29.91 in 10.0 mi South 12.7 mph 18.4 mph N/A   Clear
1:13 PM 62.6 °F - 42.8 °F 48% 29.91 in 10.0 mi SE 12.7 mph 19.6 mph N/A   Clear
1:33 PM 62.6 °F - 42.8 °F 48% 29.90 in 10.0 mi SSE 13.8 mph 18.4 mph N/A   Clear
1:53 PM 64.4 °F - 44.6 °F 49% 29.89 in 10.0 mi SE 12.7 mph 19.6 mph N/A   Clear
2:13 PM 64.4 °F - 44.6 °F 49% 29.89 in 10.0 mi ESE 10.4 mph 18.4 mph N/A   Clear
2:33 PM 64.4 °F - 44.6 °F 49% 29.89 in 10.0 mi SSE 12.7 mph 18.4 mph N/A   Clear
2:53 PM 66.2 °F - 44.6 °F 46% 29.88 in 10.0 mi SE 13.8 mph 17.3 mph N/A   Clear
3:13 PM 66.2 °F - 44.6 °F 46% 29.88 in 10.0 mi SSE 13.8 mph 19.6 mph N/A   Clear
3:33 PM 66.2 °F - 44.6 °F 46% 29.88 in 10.0 mi SE 11.5 mph 20.7 mph N/A   Clear
3:53 PM 66.2 °F - 44.6 °F 46% 29.87 in 10.0 mi ESE 15.0 mph 18.4 mph N/A   Clear
4:13 PM 66.2 °F - 44.6 °F 46% 29.86 in 10.0 mi SE 11.5 mph 20.7 mph N/A   Clear
4:33 PM 66.2 °F - 44.6 °F 46% 29.85 in 10.0 mi SE 11.5 mph 19.6 mph N/A   Clear
4:53 PM 64.4 °F - 44.6 °F 49% 29.84 in 10.0 mi ESE 13.8 mph 19.6 mph N/A   Clear
5:13 PM 64.4 °F - 44.6 °F 49% 29.84 in 10.0 mi SE 15.0 mph 19.6 mph N/A   Clear
5:33 PM 64.4 °F - 46.4 °F 52% 29.84 in 10.0 mi ESE 12.7 mph 21.9 mph N/A   Clear
5:53 PM 62.6 °F - 46.4 °F 55% 29.84 in 10.0 mi SE 11.5 mph 19.6 mph N/A   Clear
6:13 PM 60.8 °F - 46.4 °F 59% 29.84 in 10.0 mi SE 9.2 mph 16.1 mph N/A   Clear
6:33 PM 60.8 °F - 44.6 °F 55% 29.84 in 10.0 mi SE 11.5 mph 19.6 mph N/A   Clear
6:53 PM 59.0 °F - 44.6 °F 59% 29.84 in 10.0 mi SE 6.9 mph 18.4 mph N/A   Clear
7:13 PM 57.2 °F - 44.6 °F 63% 29.85 in 10.0 mi SE 8.1 mph 18.4 mph N/A   Clear
7:33 PM 57.2 °F - 46.4 °F 67% 29.85 in 10.0 mi SE 6.9 mph - N/A   Clear
7:53 PM 57.2 °F - 44.6 °F 63% 29.85 in 10.0 mi SSE 8.1 mph 17.3 mph N/A   Clear
8:13 PM 55.4 °F - 44.6 °F 67% 29.85 in 10.0 mi SE 6.9 mph - N/A   Clear
8:33 PM 55.4 °F - 44.6 °F 67% 29.85 in 10.0 mi SE 8.1 mph 17.3 mph N/A   Clear
8:53 PM 55.4 °F - 44.6 °F 67% 29.85 in 10.0 mi SSE 9.2 mph 18.4 mph N/A   Clear
9:13 PM 55.4 °F - 44.6 °F 67% 29.85 in 10.0 mi SE 8.1 mph - N/A   Clear
9:33 PM 53.6 °F - 44.6 °F 72% 29.85 in 10.0 mi SSE 9.2 mph 17.3 mph N/A   Clear
9:53 PM 53.6 °F - 44.6 °F 72% 29.85 in 10.0 mi SSE 8.1 mph 19.6 mph N/A   Clear
10:13 PM 53.6 °F - 44.6 °F 72% 29.85 in 10.0 mi SSE 10.4 mph 17.3 mph N/A   Clear
10:33 PM 51.8 °F - 44.6 °F 76% 29.86 in 10.0 mi SSE 8.1 mph - N/A   Clear
10:53 PM 51.8 °F - 44.6 °F 76% 29.85 in 10.0 mi SE 9.2 mph - N/A   Clear
11:13 PM 51.8 °F - 44.6 °F 76% 29.85 in 10.0 mi SE 9.2 mph 16.1 mph N/A   Clear
11:33 PM 51.8 °F - 44.6 °F 76% 29.85 in 10.0 mi SE 11.5 mph 16.1 mph N/A   Clear
11:53 PM 51.8 °F - 44.6 °F 76% 29.85 in 10.0 mi SE 9.2 mph 17.3 mph N/A   Clear